sensor_id;sensor_type;location;lat;lon;timestamp;pressure;altitude;pressure_sealevel;temperature;humidity
11856;BME280;5987;53.140;8.904;2023-05-20T00:00:28;102655.75;;;11.73;100.00
11856;BME280;5987;53.140;8.904;2023-05-20T00:03:32;102661.94;;;11.69;100.00
11856;BME280;5987;53.140;8.904;2023-05-20T00:06:36;102669.91;;;11.60;100.00
11856;BME280;5987;53.140;8.904;2023-05-20T00:09:41;102661.22;;;11.55;100.00
11856;BME280;5987;53.140;8.904;2023-05-20T00:12:45;102670.03;;;11.47;100.00
11856;BME280;5987;53.140;8.904;2023-05-20T00:15:49;102658.66;;;11.48;100.00
11856;BME280;5987;53.140;8.904;2023-05-20T00:18:53;102663.16;;;11.37;100.00
11856;BME280;5987;53.140;8.904;2023-05-20T00:21:58;102665.00;;;11.29;100.00
11856;BME280;5987;53.140;8.904;2023-05-20T00:25:03;102667.72;;;11.20;100.00
11856;BME280;5987;53.140;8.904;2023-05-20T00:28:07;102668.66;;;11.15;100.00
11856;BME280;5987;53.140;8.904;2023-05-20T00:31:11;102665.19;;;11.10;100.00
11856;BME280;5987;53.140;8.904;2023-05-20T00:34:14;102670.50;;;11.04;100.00
11856;BME280;5987;53.140;8.904;2023-05-20T00:37:18;102668.78;;;11.00;100.00
11856;BME280;5987;53.140;8.904;2023-05-20T00:40:23;102666.22;;;10.91;100.00
11856;BME280;5987;53.140;8.904;2023-05-20T00:43:27;102661.88;;;10.87;100.00
11856;BME280;5987;53.140;8.904;2023-05-20T00:46:30;102670.63;;;10.89;100.00
11856;BME280;5987;53.140;8.904;2023-05-20T00:49:34;102667.22;;;10.79;100.00
11856;BME280;5987;53.140;8.904;2023-05-20T00:52:38;102667.22;;;10.74;100.00
11856;BME280;5987;53.140;8.904;2023-05-20T00:55:44;102669.91;;;10.70;100.00
11856;BME280;5987;53.140;8.904;2023-05-20T00:58:48;102667.31;;;10.65;100.00
11856;BME280;5987;53.140;8.904;2023-05-20T01:01:53;102658.53;;;10.71;100.00
11856;BME280;5987;53.140;8.904;2023-05-20T01:04:58;102656.75;;;10.71;100.00
11856;BME280;5987;53.140;8.904;2023-05-20T01:08:02;102659.47;;;10.62;100.00
11856;BME280;5987;53.140;8.904;2023-05-20T01:11:15;102663.03;;;10.56;100.00
11856;BME280;5987;53.140;8.904;2023-05-20T01:14:23;102663.91;;;10.54;100.00
11856;BME280;5987;53.140;8.904;2023-05-20T01:17:31;102660.41;;;10.50;100.00
11856;BME280;5987;53.140;8.904;2023-05-20T01:20:39;102662.19;;;10.50;100.00
11856;BME280;5987;53.140;8.904;2023-05-20T01:23:44;102660.44;;;10.49;100.00
11856;BME280;5987;53.140;8.904;2023-05-20T01:26:48;102660.50;;;10.41;100.00
11856;BME280;5987;53.140;8.904;2023-05-20T01:29:52;102661.38;;;10.38;100.00
11856;BME280;5987;53.140;8.904;2023-05-20T01:33:01;102664.00;;;10.38;100.00
11856;BME280;5987;53.140;8.904;2023-05-20T01:36:09;102658.78;;;10.35;100.00
11856;BME280;5987;53.140;8.904;2023-05-20T01:39:17;102651.78;;;10.29;100.00
11856;BME280;5987;53.140;8.904;2023-05-20T01:42:22;102662.25;;;10.33;100.00
11856;BME280;5987;53.140;8.904;2023-05-20T01:45:27;102658.81;;;10.23;100.00
11856;BME280;5987;53.140;8.904;2023-05-20T01:48:31;102652.69;;;10.24;100.00
11856;BME280;5987;53.140;8.904;2023-05-20T01:51:35;102648.34;;;10.20;100.00
11856;BME280;5987;53.140;8.904;2023-05-20T01:54:40;102646.59;;;10.12;100.00
11856;BME280;5987;53.140;8.904;2023-05-20T01:57:44;102646.63;;;10.09;100.00
11856;BME280;5987;53.140;8.904;2023-05-20T02:00:48;102640.53;;;10.09;100.00
11856;BME280;5987;53.140;8.904;2023-05-20T02:03:52;102637.94;;;10.04;100.00
11856;BME280;5987;53.140;8.904;2023-05-20T02:06:56;102639.69;;;10.02;100.00
11856;BME280;5987;53.140;8.904;2023-05-20T02:10:01;102638.81;;;9.95;100.00
11856;BME280;5987;53.140;8.904;2023-05-20T02:13:05;102644.97;;;9.94;100.00
11856;BME280;5987;53.140;8.904;2023-05-20T02:16:09;102642.34;;;9.91;100.00
11856;BME280;5987;53.140;8.904;2023-05-20T02:19:12;102639.72;;;9.90;100.00
11856;BME280;5987;53.140;8.904;2023-05-20T02:22:21;102638.00;;;9.86;100.00
11856;BME280;5987;53.140;8.904;2023-05-20T02:25:26;102646.81;;;9.75;100.00
11856;BME280;5987;53.140;8.904;2023-05-20T02:28:29;102641.56;;;9.72;100.00
11856;BME280;5987;53.140;8.904;2023-05-20T02:31:33;102638.97;;;9.71;100.00
11856;BME280;5987;53.140;8.904;2023-05-20T02:34:38;102645.94;;;9.70;100.00
11856;BME280;5987;53.140;8.904;2023-05-20T02:37:41;102640.72;;;9.66;100.00
11856;BME280;5987;53.140;8.904;2023-05-20T02:40:47;102645.97;;;9.63;100.00
11856;BME280;5987;53.140;8.904;2023-05-20T02:43:51;102659.09;;;9.55;100.00
11856;BME280;5987;53.140;8.904;2023-05-20T02:46:55;102653.88;;;9.52;100.00
11856;BME280;5987;53.140;8.904;2023-05-20T02:49:59;102648.63;;;9.58;100.00
11856;BME280;5987;53.140;8.904;2023-05-20T02:53:02;102653.03;;;9.42;100.00
11856;BME280;5987;53.140;8.904;2023-05-20T02:56:08;102653.91;;;9.39;100.00
11856;BME280;5987;53.140;8.904;2023-05-20T02:59:12;102653.91;;;9.35;100.00
11856;BME280;5987;53.140;8.904;2023-05-20T03:02:15;102660.03;;;9.31;100.00
11856;BME280;5987;53.140;8.904;2023-05-20T03:05:19;102654.81;;;9.24;100.00
11856;BME280;5987;53.140;8.904;2023-05-20T03:08:24;102661.81;;;9.21;100.00
11856;BME280;5987;53.140;8.904;2023-05-20T03:11:29;102654.84;;;9.14;100.00
11856;BME280;5987;53.140;8.904;2023-05-20T03:14:33;102657.47;;;9.10;100.00
11856;BME280;5987;53.140;8.904;2023-05-20T03:17:36;102659.19;;;9.08;100.00
11856;BME280;5987;53.140;8.904;2023-05-20T03:20:40;102663.59;;;9.03;100.00
11856;BME280;5987;53.140;8.904;2023-05-20T03:23:44;102661.84;;;8.98;100.00
11856;BME280;5987;53.140;8.904;2023-05-20T03:26:49;102655.72;;;8.97;100.00
11856;BME280;5987;53.140;8.904;2023-05-20T03:29:53;102649.59;;;9.00;100.00
11856;BME280;5987;53.140;8.904;2023-05-20T03:32:57;102651.34;;;8.90;100.00
11856;BME280;5987;53.140;8.904;2023-05-20T03:36:01;102660.97;;;8.85;100.00
11856;BME280;5987;53.140;8.904;2023-05-20T03:39:05;102654.84;;;8.86;100.00
11856;BME280;5987;53.140;8.904;2023-05-20T03:42:10;102656.59;;;8.88;100.00
11856;BME280;5987;53.140;8.904;2023-05-20T03:45:14;102658.38;;;8.85;100.00
11856;BME280;5987;53.140;8.904;2023-05-20T03:48:17;102656.63;;;8.81;100.00
11856;BME280;5987;53.140;8.904;2023-05-20T03:51:21;102656.59;;;8.85;100.00
11856;BME280;5987;53.140;8.904;2023-05-20T03:54:24;102655.75;;;8.85;100.00
11856;BME280;5987;53.140;8.904;2023-05-20T03:57:30;102657.47;;;8.80;100.00
11856;BME280;5987;53.140;8.904;2023-05-20T04:00:34;102661.84;;;8.82;100.00
11856;BME280;5987;53.140;8.904;2023-05-20T04:03:38;102654.00;;;8.84;100.00
11856;BME280;5987;53.140;8.904;2023-05-20T04:06:43;102658.34;;;8.94;100.00
11856;BME280;5987;53.140;8.904;2023-05-20T04:09:48;102660.97;;;8.85;100.00
11856;BME280;5987;53.140;8.904;2023-05-20T04:12:53;102660.09;;;8.92;100.00
11856;BME280;5987;53.140;8.904;2023-05-20T04:15:57;102658.34;;;9.08;100.00
11856;BME280;5987;53.140;8.904;2023-05-20T04:19:01;102660.09;;;9.10;100.00
11856;BME280;5987;53.140;8.904;2023-05-20T04:22:05;102661.78;;;9.24;100.00
11856;BME280;5987;53.140;8.904;2023-05-20T04:25:09;102656.56;;;9.18;100.00
11856;BME280;5987;53.140;8.904;2023-05-20T04:28:15;102656.56;;;9.30;100.00
11856;BME280;5987;53.140;8.904;2023-05-20T04:31:19;102655.69;;;9.34;100.00
11856;BME280;5987;53.140;8.904;2023-05-20T04:34:30;102655.59;;;9.59;100.00
11856;BME280;5987;53.140;8.904;2023-05-20T04:37:36;102653.75;;;9.83;100.00
11856;BME280;5987;53.140;8.904;2023-05-20T04:40:40;102651.06;;;9.96;100.00
11856;BME280;5987;53.140;8.904;2023-05-20T04:43:45;102645.72;;;10.15;100.00
11856;BME280;5987;53.140;8.904;2023-05-20T04:46:49;102646.50;;;10.33;100.00
11856;BME280;5987;53.140;8.904;2023-05-20T04:49:52;102650.00;;;10.33;100.00
11856;BME280;5987;53.140;8.904;2023-05-20T04:52:58;102651.53;;;10.68;100.00
11856;BME280;5987;53.140;8.904;2023-05-20T04:56:03;102660.00;;;11.01;100.00
11856;BME280;5987;53.140;8.904;2023-05-20T04:59:09;102642.41;;;11.09;100.00
11856;BME280;5987;53.140;8.904;2023-05-20T05:02:12;102653.78;;;11.13;100.00
11856;BME280;5987;53.140;8.904;2023-05-20T05:05:17;102647.66;;;11.09;100.00
11856;BME280;5987;53.140;8.904;2023-05-20T05:08:20;102656.94;;;11.44;100.00
11856;BME280;5987;53.140;8.904;2023-05-20T05:11:24;102650.34;;;11.86;100.00
11856;BME280;5987;53.140;8.904;2023-05-20T05:14:29;102650.19;;;11.98;100.00
11856;BME280;5987;53.140;8.904;2023-05-20T05:17:33;102648.50;;;11.91;100.00
11856;BME280;5987;53.140;8.904;2023-05-20T05:20:37;102648.97;;;12.24;100.00
11856;BME280;5987;53.140;8.904;2023-05-20T05:23:40;102653.72;;;12.58;100.00
11856;BME280;5987;53.140;8.904;2023-05-20T05:26:44;102647.94;;;12.34;100.00
11856;BME280;5987;53.140;8.904;2023-05-20T05:29:49;102641.00;;;12.27;100.00
11856;BME280;5987;53.140;8.904;2023-05-20T05:32:53;102649.28;;;11.99;100.00
11856;BME280;5987;53.140;8.904;2023-05-20T05:35:57;102653.31;;;12.25;100.00
11856;BME280;5987;53.140;8.904;2023-05-20T05:39:02;102655.59;;;12.49;100.00
11856;BME280;5987;53.140;8.904;2023-05-20T05:42:05;102656.47;;;12.48;100.00
11856;BME280;5987;53.140;8.904;2023-05-20T05:45:11;102649.94;;;12.74;100.00
11856;BME280;5987;53.140;8.904;2023-05-20T05:48:14;102648.69;;;12.42;100.00
11856;BME280;5987;53.140;8.904;2023-05-20T05:51:18;102656.44;;;12.50;100.00
11856;BME280;5987;53.140;8.904;2023-05-20T05:54:22;102648.94;;;12.81;100.00
11856;BME280;5987;53.140;8.904;2023-05-20T05:57:25;102647.06;;;12.86;100.00
11856;BME280;5987;53.140;8.904;2023-05-20T06:00:30;102651.47;;;12.87;100.00
11856;BME280;5987;53.140;8.904;2023-05-20T06:03:34;102646.13;;;12.38;100.00
11856;BME280;5987;53.140;8.904;2023-05-20T06:06:38;102640.84;;;12.36;100.00
11856;BME280;5987;53.140;8.904;2023-05-20T06:09:41;102639.09;;;12.38;100.00
11856;BME280;5987;53.140;8.904;2023-05-20T06:12:45;102638.66;;;12.66;100.00
11856;BME280;5987;53.140;8.904;2023-05-20T06:15:50;102646.06;;;12.94;100.00
11856;BME280;5987;53.140;8.904;2023-05-20T06:18:54;102648.00;;;12.82;100.00
11856;BME280;5987;53.140;8.904;2023-05-20T06:21:58;102651.28;;;12.98;100.00
11856;BME280;5987;53.140;8.904;2023-05-20T06:25:02;102648.66;;;12.97;100.00
11856;BME280;5987;53.140;8.904;2023-05-20T06:28:07;102641.22;;;12.69;100.00
11856;BME280;5987;53.140;8.904;2023-05-20T06:31:13;102645.84;;;12.56;100.00
11856;BME280;5987;53.140;8.904;2023-05-20T06:34:17;102642.41;;;13.02;100.00
11856;BME280;5987;53.140;8.904;2023-05-20T06:37:20;102632.56;;;13.12;100.00
11856;BME280;5987;53.140;8.904;2023-05-20T06:40:26;102633.28;;;13.20;100.00
11856;BME280;5987;53.140;8.904;2023-05-20T06:43:31;102625.97;;;13.80;100.00
11856;BME280;5987;53.140;8.904;2023-05-20T06:46:36;102630.69;;;14.06;100.00
11856;BME280;5987;53.140;8.904;2023-05-20T06:49:40;102624.94;;;14.27;100.00
11856;BME280;5987;53.140;8.904;2023-05-20T06:52:47;102625.88;;;14.60;100.00
11856;BME280;5987;53.140;8.904;2023-05-20T06:55:54;102613.16;;;14.76;100.00
11856;BME280;5987;53.140;8.904;2023-05-20T06:58:57;102616.69;;;15.09;100.00
11856;BME280;5987;53.140;8.904;2023-05-20T07:02:03;102603.81;;;15.29;100.00
11856;BME280;5987;53.140;8.904;2023-05-20T07:05:09;102606.78;;;15.79;100.00
11856;BME280;5987;53.140;8.904;2023-05-20T07:08:12;102590.97;;;16.33;100.00
11856;BME280;5987;53.140;8.904;2023-05-20T07:11:16;102594.84;;;16.22;100.00
11856;BME280;5987;53.140;8.904;2023-05-20T07:14:20;102592.66;;;16.35;100.00
11856;BME280;5987;53.140;8.904;2023-05-20T07:17:25;102599.16;;;16.26;100.00
11856;BME280;5987;53.140;8.904;2023-05-20T07:20:30;102596.31;;;16.58;100.00
11856;BME280;5987;53.140;8.904;2023-05-20T07:23:34;102596.56;;;17.04;97.06
11856;BME280;5987;53.140;8.904;2023-05-20T07:26:38;102593.47;;;16.91;98.88
11856;BME280;5987;53.140;8.904;2023-05-20T07:29:42;102581.78;;;17.44;96.62
11856;BME280;5987;53.140;8.904;2023-05-20T07:32:47;102582.66;;;17.21;98.16
11856;BME280;5987;53.140;8.904;2023-05-20T07:35:50;102571.94;;;17.47;94.14
11856;BME280;5987;53.140;8.904;2023-05-20T07:38:55;102568.81;;;17.60;94.49
11856;BME280;5987;53.140;8.904;2023-05-20T07:42:07;102573.78;;;17.22;96.77
11856;BME280;5987;53.140;8.904;2023-05-20T07:45:10;102556.44;;;16.36;100.00
11856;BME280;5987;53.140;8.904;2023-05-20T07:48:16;102566.50;;;17.03;100.00
11856;BME280;5987;53.140;8.904;2023-05-20T07:51:20;102559.94;;;17.37;98.61
11856;BME280;5987;53.140;8.904;2023-05-20T07:54:23;102555.72;;;17.31;100.00
11856;BME280;5987;53.140;8.904;2023-05-20T07:57:27;102565.97;;;18.10;94.81
11856;BME280;5987;53.140;8.904;2023-05-20T08:00:31;102557.09;;;17.65;92.96
11856;BME280;5987;53.140;8.904;2023-05-20T08:03:36;102562.00;;;17.29;94.85
11856;BME280;5987;53.140;8.904;2023-05-20T08:06:40;102560.56;;;17.90;92.16
11856;BME280;5987;53.140;8.904;2023-05-20T08:09:45;102558.97;;;18.08;90.73
11856;BME280;5987;53.140;8.904;2023-05-20T08:12:49;102549.47;;;18.45;89.58
11856;BME280;5987;53.140;8.904;2023-05-20T08:15:53;102553.88;;;18.66;86.12
11856;BME280;5987;53.140;8.904;2023-05-20T08:18:58;102547.78;;;18.22;87.11
11856;BME280;5987;53.140;8.904;2023-05-20T08:22:01;102543.75;;;18.54;85.44
11856;BME280;5987;53.140;8.904;2023-05-20T08:25:08;102543.53;;;18.17;83.63
11856;BME280;5987;53.140;8.904;2023-05-20T08:28:12;102537.66;;;19.12;77.14
11856;BME280;5987;53.140;8.904;2023-05-20T08:31:16;102541.59;;;18.21;85.11
11856;BME280;5987;53.140;8.904;2023-05-20T08:34:21;102542.47;;;17.99;84.46
11856;BME280;5987;53.140;8.904;2023-05-20T08:37:25;102538.91;;;18.00;88.14
11856;BME280;5987;53.140;8.904;2023-05-20T08:40:29;102531.53;;;18.07;83.66
11856;BME280;5987;53.140;8.904;2023-05-20T08:43:33;102530.97;;;17.77;88.08
11856;BME280;5987;53.140;8.904;2023-05-20T08:46:38;102536.31;;;17.29;91.20
11856;BME280;5987;53.140;8.904;2023-05-20T08:49:44;102527.88;;;17.65;85.60
11856;BME280;5987;53.140;8.904;2023-05-20T08:52:48;102532.75;;;17.30;89.45
11856;BME280;5987;53.140;8.904;2023-05-20T08:55:55;102525.47;;;16.88;92.07
11856;BME280;5987;53.140;8.904;2023-05-20T08:59:03;102527.72;;;16.49;98.14
11856;BME280;5987;53.140;8.904;2023-05-20T09:02:09;102511.31;;;17.81;87.57
11856;BME280;5987;53.140;8.904;2023-05-20T09:05:14;102515.50;;;17.64;83.94
11856;BME280;5987;53.140;8.904;2023-05-20T09:08:23;102507.66;;;17.61;79.47
11856;BME280;5987;53.140;8.904;2023-05-20T09:11:29;102504.75;;;18.94;76.22
11856;BME280;5987;53.140;8.904;2023-05-20T09:14:33;102501.94;;;17.94;82.09
11856;BME280;5987;53.140;8.904;2023-05-20T09:17:37;102514.50;;;17.91;85.06
11856;BME280;5987;53.140;8.904;2023-05-20T09:20:46;102511.91;;;18.10;82.07
11856;BME280;5987;53.140;8.904;2023-05-20T09:23:50;102501.19;;;18.54;78.90
11856;BME280;5987;53.140;8.904;2023-05-20T09:26:55;102511.84;;;17.21;89.65
11856;BME280;5987;53.140;8.904;2023-05-20T09:30:00;102505.78;;;17.63;89.14
11856;BME280;5987;53.140;8.904;2023-05-20T09:33:04;102503.59;;;17.29;86.75
11856;BME280;5987;53.140;8.904;2023-05-20T09:36:11;102496.81;;;17.44;86.57
11856;BME280;5987;53.140;8.904;2023-05-20T09:39:24;102490.25;;;17.54;80.10
11856;BME280;5987;53.140;8.904;2023-05-20T09:42:41;102481.59;;;17.49;81.05
11856;BME280;5987;53.140;8.904;2023-05-20T09:45:45;102480.22;;;17.83;81.22
11856;BME280;5987;53.140;8.904;2023-05-20T09:48:50;102485.13;;;17.49;83.48
11856;BME280;5987;53.140;8.904;2023-05-20T09:51:57;102478.03;;;17.26;78.70
11856;BME280;5987;53.140;8.904;2023-05-20T09:55:03;102489.19;;;16.89;81.19
11856;BME280;5987;53.140;8.904;2023-05-20T09:58:11;102486.53;;;16.89;81.15
11856;BME280;5987;53.140;8.904;2023-05-20T10:01:17;102484.97;;;17.30;78.94
11856;BME280;5987;53.140;8.904;2023-05-20T10:04:23;102474.16;;;17.35;79.18
11856;BME280;5987;53.140;8.904;2023-05-20T10:08:06;102471.03;;;17.70;82.95
11856;BME280;5987;53.140;8.904;2023-05-20T10:11:24;102470.59;;;18.23;74.53
11856;BME280;5987;53.140;8.904;2023-05-20T10:14:50;102465.81;;;18.31;77.66
11856;BME280;5987;53.140;8.904;2023-05-20T10:18:13;102458.78;;;18.30;73.24
11856;BME280;5987;53.140;8.904;2023-05-20T10:21:23;102454.03;;;18.58;72.80
11856;BME280;5987;53.140;8.904;2023-05-20T10:24:33;102445.34;;;17.92;72.68
11856;BME280;5987;53.140;8.904;2023-05-20T10:27:43;102452.25;;;18.17;76.45
11856;BME280;5987;53.140;8.904;2023-05-20T10:30:49;102444.63;;;17.87;74.88
11856;BME280;5987;53.140;8.904;2023-05-20T10:33:53;102448.38;;;17.39;79.54
11856;BME280;5987;53.140;8.904;2023-05-20T10:36:57;102443.47;;;17.50;81.13
11856;BME280;5987;53.140;8.904;2023-05-20T10:40:11;102421.22;;;17.97;77.83
11856;BME280;5987;53.140;8.904;2023-05-20T10:43:25;102424.22;;;18.30;80.54
11856;BME280;5987;53.140;8.904;2023-05-20T10:46:29;102434.38;;;18.21;80.71
11856;BME280;5987;53.140;8.904;2023-05-20T10:49:51;102431.25;;;17.68;85.92
11856;BME280;5987;53.140;8.904;2023-05-20T10:53:02;102426.69;;;17.49;81.20
11856;BME280;5987;53.140;8.904;2023-05-20T10:56:16;102426.78;;;17.91;80.63
11856;BME280;5987;53.140;8.904;2023-05-20T10:59:21;102412.25;;;18.20;79.20
11856;BME280;5987;53.140;8.904;2023-05-20T11:02:26;102416.50;;;17.81;79.59
11856;BME280;5987;53.140;8.904;2023-05-20T11:05:31;102410.44;;;18.41;78.51
11856;BME280;5987;53.140;8.904;2023-05-20T11:08:35;102410.69;;;17.51;79.84
11856;BME280;5987;53.140;8.904;2023-05-20T11:11:40;102418.25;;;17.38;84.16
11856;BME280;5987;53.140;8.904;2023-05-20T11:14:44;102407.91;;;17.32;87.52
11856;BME280;5987;53.140;8.904;2023-05-20T11:17:53;102417.50;;;16.65;95.05
11856;BME280;5987;53.140;8.904;2023-05-20T11:20:57;102408.38;;;16.74;98.98
11856;BME280;5987;53.140;8.904;2023-05-20T11:24:01;102418.66;;;16.58;99.00
11856;BME280;5987;53.140;8.904;2023-05-20T11:27:06;102413.97;;;16.41;100.00
11856;BME280;5987;53.140;8.904;2023-05-20T11:30:12;102423.34;;;16.51;100.00
11856;BME280;5987;53.140;8.904;2023-05-20T11:33:18;102417.81;;;16.57;100.00
11856;BME280;5987;53.140;8.904;2023-05-20T11:36:22;102418.69;;;16.33;100.00
11856;BME280;5987;53.140;8.904;2023-05-20T11:39:29;102416.34;;;16.49;100.00
11856;BME280;5987;53.140;8.904;2023-05-20T11:42:36;102422.59;;;16.22;100.00
11856;BME280;5987;53.140;8.904;2023-05-20T11:45:40;102417.44;;;16.43;100.00
11856;BME280;5987;53.140;8.904;2023-05-20T11:48:52;102420.88;;;16.45;100.00
11856;BME280;5987;53.140;8.904;2023-05-20T11:51:56;102407.22;;;16.32;100.00
11856;BME280;5987;53.140;8.904;2023-05-20T11:55:00;102408.47;;;16.47;100.00
11856;BME280;5987;53.140;8.904;2023-05-20T11:58:05;102408.53;;;16.44;100.00
11856;BME280;5987;53.140;8.904;2023-05-20T12:01:08;102410.16;;;16.24;100.00
11856;BME280;5987;53.140;8.904;2023-05-20T12:04:23;102410.94;;;16.26;100.00
11856;BME280;5987;53.140;8.904;2023-05-20T12:07:27;102397.75;;;16.50;100.00
11856;BME280;5987;53.140;8.904;2023-05-20T12:10:31;102402.16;;;16.73;100.00
11856;BME280;5987;53.140;8.904;2023-05-20T12:13:38;102389.50;;;16.33;100.00
11856;BME280;5987;53.140;8.904;2023-05-20T12:16:42;102390.19;;;16.63;100.00
11856;BME280;5987;53.140;8.904;2023-05-20T12:19:45;102389.50;;;16.33;100.00
11856;BME280;5987;53.140;8.904;2023-05-20T12:22:50;102393.09;;;16.32;100.00
11856;BME280;5987;53.140;8.904;2023-05-20T12:25:53;102401.31;;;16.49;100.00
11856;BME280;5987;53.140;8.904;2023-05-20T12:28:59;102395.03;;;16.75;99.81
11856;BME280;5987;53.140;8.904;2023-05-20T12:32:03;102392.63;;;16.44;100.00
11856;BME280;5987;53.140;8.904;2023-05-20T12:35:08;102409.88;;;16.07;100.00
11856;BME280;5987;53.140;8.904;2023-05-20T12:38:12;102402.94;;;16.03;100.00
11856;BME280;5987;53.140;8.904;2023-05-20T12:41:16;102397.69;;;16.26;100.00
11856;BME280;5987;53.140;8.904;2023-05-20T12:44:21;102385.47;;;16.22;100.00
11856;BME280;5987;53.140;8.904;2023-05-20T12:47:24;102380.06;;;16.25;100.00
11856;BME280;5987;53.140;8.904;2023-05-20T12:50:28;102378.34;;;16.24;100.00
11856;BME280;5987;53.140;8.904;2023-05-20T12:53:32;102367.50;;;16.31;100.00
11856;BME280;5987;53.140;8.904;2023-05-20T12:56:35;102367.28;;;16.37;100.00
11856;BME280;5987;53.140;8.904;2023-05-20T12:59:40;102358.59;;;16.33;100.00
11856;BME280;5987;53.140;8.904;2023-05-20T13:02:44;102360.72;;;16.23;100.00
11856;BME280;5987;53.140;8.904;2023-05-20T13:05:47;102356.09;;;16.28;100.00
11856;BME280;5987;53.140;8.904;2023-05-20T13:08:51;102349.19;;;16.72;100.00
11856;BME280;5987;53.140;8.904;2023-05-20T13:11:55;102353.59;;;16.96;100.00
11856;BME280;5987;53.140;8.904;2023-05-20T13:15:00;102340.31;;;16.73;100.00
11856;BME280;5987;53.140;8.904;2023-05-20T13:18:04;102328.53;;;17.04;100.00
11856;BME280;5987;53.140;8.904;2023-05-20T13:21:08;102310.31;;;16.94;98.64
11856;BME280;5987;53.140;8.904;2023-05-20T13:24:11;102307.78;;;16.91;100.00
11856;BME280;5987;53.140;8.904;2023-05-20T13:27:15;102299.31;;;16.58;100.00
11856;BME280;5987;53.140;8.904;2023-05-20T13:30:20;102297.75;;;16.76;100.00
11856;BME280;5987;53.140;8.904;2023-05-20T13:33:23;102300.88;;;16.63;100.00
11856;BME280;5987;53.140;8.904;2023-05-20T13:36:27;102299.75;;;17.15;100.00
11856;BME280;5987;53.140;8.904;2023-05-20T13:39:31;102286.66;;;17.74;98.34
11856;BME280;5987;53.140;8.904;2023-05-20T13:42:34;102291.19;;;17.92;96.21
11856;BME280;5987;53.140;8.904;2023-05-20T13:45:40;102293.38;;;17.41;100.00
11856;BME280;5987;53.140;8.904;2023-05-20T13:48:43;102296.31;;;17.13;100.00
11856;BME280;5987;53.140;8.904;2023-05-20T13:51:47;102297.53;;;16.82;100.00
11856;BME280;5987;53.140;8.904;2023-05-20T13:54:50;102293.34;;;17.21;100.00
11856;BME280;5987;53.140;8.904;2023-05-20T13:57:54;102282.78;;;17.19;100.00
11856;BME280;5987;53.140;8.904;2023-05-20T14:00:59;102283.47;;;17.24;100.00
11856;BME280;5987;53.140;8.904;2023-05-20T14:04:03;102275.13;;;17.54;100.00
11856;BME280;5987;53.140;8.904;2023-05-20T14:07:07;102274.03;;;17.38;100.00
11856;BME280;5987;53.140;8.904;2023-05-20T14:10:12;102273.97;;;17.19;100.00
11856;BME280;5987;53.140;8.904;2023-05-20T14:13:15;102270.13;;;17.67;99.63
11856;BME280;5987;53.140;8.904;2023-05-20T14:16:20;102267.25;;;17.30;100.00
11856;BME280;5987;53.140;8.904;2023-05-20T14:19:24;102269.31;;;17.02;100.00
11856;BME280;5987;53.140;8.904;2023-05-20T14:22:28;102265.31;;;17.13;100.00
11856;BME280;5987;53.140;8.904;2023-05-20T14:25:32;102266.66;;;17.24;100.00
11856;BME280;5987;53.140;8.904;2023-05-20T14:28:35;102261.44;;;17.43;100.00
11856;BME280;5987;53.140;8.904;2023-05-20T14:31:41;102254.28;;;17.02;100.00
11856;BME280;5987;53.140;8.904;2023-05-20T14:34:45;102255.31;;;17.20;100.00
11856;BME280;5987;53.140;8.904;2023-05-20T14:37:48;102247.44;;;16.96;100.00
11856;BME280;5987;53.140;8.904;2023-05-20T14:40:52;102251.09;;;16.94;100.00
11856;BME280;5987;53.140;8.904;2023-05-20T14:43:55;102247.31;;;17.00;100.00
11856;BME280;5987;53.140;8.904;2023-05-20T14:47:01;102249.03;;;16.78;100.00
11856;BME280;5987;53.140;8.904;2023-05-20T14:50:06;102241.53;;;16.90;100.00
11856;BME280;5987;53.140;8.904;2023-05-20T14:53:10;102235.19;;;16.70;100.00
11856;BME280;5987;53.140;8.904;2023-05-20T14:56:13;102233.47;;;16.47;100.00
11856;BME280;5987;53.140;8.904;2023-05-20T14:59:17;102237.91;;;16.69;100.00
11856;BME280;5987;53.140;8.904;2023-05-20T15:02:22;102228.66;;;16.79;100.00
11856;BME280;5987;53.140;8.904;2023-05-20T15:05:26;102235.09;;;16.95;100.00
11856;BME280;5987;53.140;8.904;2023-05-20T15:08:31;102241.34;;;16.71;100.00
11856;BME280;5987;53.140;8.904;2023-05-20T15:11:34;102232.47;;;16.72;100.00
11856;BME280;5987;53.140;8.904;2023-05-20T15:14:38;102239.47;;;16.28;100.00
11856;BME280;5987;53.140;8.904;2023-05-20T15:17:43;102239.22;;;16.58;100.00
11856;BME280;5987;53.140;8.904;2023-05-20T15:20:46;102238.78;;;17.13;100.00
11856;BME280;5987;53.140;8.904;2023-05-20T15:23:50;102250.63;;;16.60;100.00
11856;BME280;5987;53.140;8.904;2023-05-20T15:26:53;102230.44;;;16.56;100.00
11856;BME280;5987;53.140;8.904;2023-05-20T15:29:57;102242.22;;;16.49;100.00
11856;BME280;5987;53.140;8.904;2023-05-20T15:33:02;102236.50;;;16.82;100.00
11856;BME280;5987;53.140;8.904;2023-05-20T15:36:06;102232.56;;;17.14;100.00
11856;BME280;5987;53.140;8.904;2023-05-20T15:39:10;102220.81;;;17.20;100.00
11856;BME280;5987;53.140;8.904;2023-05-20T15:42:14;102226.22;;;16.96;100.00
11856;BME280;5987;53.140;8.904;2023-05-20T15:45:19;102221.31;;;16.63;100.00
11856;BME280;5987;53.140;8.904;2023-05-20T15:48:24;102224.22;;;16.57;100.00
11856;BME280;5987;53.140;8.904;2023-05-20T15:51:29;102226.63;;;16.63;100.00
11856;BME280;5987;53.140;8.904;2023-05-20T15:54:33;102215.16;;;16.17;100.00
11856;BME280;5987;53.140;8.904;2023-05-20T15:57:36;102218.00;;;16.12;100.00
11856;BME280;5987;53.140;8.904;2023-05-20T16:00:40;102214.13;;;16.21;100.00
11856;BME280;5987;53.140;8.904;2023-05-20T16:03:45;102215.91;;;16.21;100.00
11856;BME280;5987;53.140;8.904;2023-05-20T16:06:49;102210.75;;;16.18;100.00
11856;BME280;5987;53.140;8.904;2023-05-20T16:09:53;102214.34;;;16.39;100.00
11856;BME280;5987;53.140;8.904;2023-05-20T16:12:57;102200.97;;;16.42;100.00